createdAt,value
2023-04-05T00:07:24.868Z,76803.03
2023-04-05T00:17:31.768Z,76803.03
2023-04-05T00:27:36.561Z,76792.91
2023-04-05T00:37:41.571Z,76782.78
2023-04-05T00:47:44.723Z,76766.59
2023-04-05T00:57:52.935Z,76768.63
2023-04-05T01:08:02.682Z,76778.75
2023-04-05T01:18:11.772Z,76799.00
2023-04-05T01:28:31.427Z,76794.94
2023-04-05T01:38:34.017Z,76819.25
2023-04-05T01:48:36.295Z,76835.44
2023-04-05T01:58:38.944Z,76843.53
2023-04-05T02:08:45.871Z,76851.63
2023-04-05T02:18:52.719Z,76869.84
2023-04-05T02:28:58.248Z,76875.91
2023-04-05T02:39:00.814Z,76871.88
2023-04-05T02:49:03.025Z,76886.03
2023-04-05T02:59:16.084Z,76892.13
2023-04-05T03:09:22.773Z,76884.00
2023-04-05T03:19:30.341Z,76873.91
2023-04-05T03:29:46.414Z,76877.94
2023-04-05T03:39:55.039Z,76871.88
2023-04-05T03:49:57.727Z,76843.53
2023-04-05T04:00:02.317Z,76815.19
2023-04-05T04:10:18.171Z,76780.78
2023-04-05T04:20:24.821Z,76738.25
2023-04-05T04:30:46.938Z,76742.31
2023-04-05T04:41:10.093Z,76728.13
2023-04-05T04:51:42.778Z,76730.16
2023-04-05T05:01:46.657Z,76734.22
2023-04-05T05:11:48.950Z,76703.84
2023-04-05T05:21:54.289Z,76699.81
2023-04-05T05:31:56.915Z,76693.72
2023-04-05T05:42:05.177Z,76657.28
2023-04-05T05:52:11.553Z,76677.53
2023-04-05T06:02:18.355Z,76683.59
2023-04-05T06:12:28.708Z,76681.59
2023-04-05T06:22:34.762Z,76671.47
2023-04-05T06:32:40.188Z,76671.47
2023-04-05T06:42:52.774Z,76665.38
2023-04-05T06:53:04.245Z,76683.59
2023-04-05T07:03:10.357Z,76673.47
2023-04-05T07:13:12.562Z,76677.53
2023-04-05T07:23:18.380Z,76691.69
2023-04-05T07:33:21.944Z,76691.69
2023-04-05T07:43:32.411Z,76677.53
2023-04-05T07:53:37.757Z,76685.63
2023-04-05T08:03:40.445Z,76677.53
2023-04-05T08:13:47.045Z,76641.09
2023-04-05T08:23:54.643Z,76622.88
2023-04-05T08:34:02.452Z,76600.59
2023-04-05T08:44:08.326Z,76596.56
2023-04-05T08:54:10.451Z,76554.06
2023-04-05T09:04:23.894Z,76543.94
2023-04-05T09:14:29.593Z,76552.03
2023-04-05T09:24:39.993Z,76521.66
2023-04-05T09:34:43.629Z,76527.75
2023-04-05T09:45:01.537Z,76430.56
2023-04-05T09:55:08.440Z,76422.47
2023-04-05T10:05:17.613Z,76398.19
2023-04-05T10:15:19.883Z,76406.28
2023-04-05T10:25:23.424Z,76430.56
2023-04-05T10:35:51.891Z,76341.50
2023-04-05T10:45:56.987Z,76357.72
2023-04-05T10:56:02.219Z,76386.03
2023-04-05T11:06:23.368Z,76402.25
2023-04-05T11:16:44.675Z,76353.66
2023-04-05T11:26:57.766Z,76329.38
2023-04-05T11:37:04.751Z,76357.72
2023-04-05T11:47:12.482Z,76422.47
2023-04-05T11:57:25.033Z,76365.81
2023-04-05T12:07:37.191Z,76333.41
2023-04-05T12:17:53.056Z,76361.75
2023-04-05T12:27:57.597Z,76325.31
2023-04-05T12:38:06.357Z,76347.59
2023-04-05T12:48:11.190Z,76313.19
2023-04-05T12:58:17.823Z,76280.78
2023-04-05T13:08:20.549Z,76256.50
2023-04-05T13:18:24.651Z,76238.28
2023-04-05T13:28:27.647Z,76296.97
2023-04-05T13:38:29.853Z,76365.81
2023-04-05T13:48:32.074Z,76315.19
2023-04-05T13:58:36.610Z,76317.22
2023-04-05T14:08:38.869Z,76276.75
2023-04-05T14:18:43.279Z,76292.94
2023-04-05T14:28:45.584Z,76296.97
2023-04-05T14:38:48.110Z,76359.72
2023-04-05T14:48:55.272Z,76369.84
2023-04-05T14:59:02.973Z,76365.81
2023-04-05T15:09:10.085Z,76394.16
2023-04-05T15:19:14.625Z,76406.28
2023-04-05T15:29:20.259Z,76426.53
2023-04-05T15:39:29.367Z,76424.50
2023-04-05T15:49:34.930Z,76452.84
2023-04-05T15:59:40.609Z,76436.66
2023-04-05T16:09:45.617Z,76440.69
2023-04-05T16:19:48.382Z,76456.91
2023-04-05T16:29:50.649Z,76454.88
2023-04-05T16:39:54.985Z,76469.03
2023-04-05T16:49:57.260Z,76489.28
2023-04-05T17:00:05.035Z,76525.72
2023-04-05T17:10:07.953Z,76519.63
2023-04-05T17:20:13.012Z,76527.75
2023-04-05T17:30:18.439Z,76533.81
2023-04-05T17:40:20.950Z,76543.94
2023-04-05T17:50:28.934Z,76539.88
2023-04-05T18:00:35.609Z,76564.19
2023-04-05T18:10:40.160Z,76572.28
2023-04-05T18:20:46.614Z,76588.47
2023-04-05T18:30:50.632Z,76592.50
2023-04-05T18:41:05.322Z,76602.63
2023-04-05T18:51:13.785Z,76608.72
2023-04-05T19:01:21.052Z,76637.03
2023-04-05T19:11:26.980Z,76633.00
2023-04-05T19:21:29.328Z,76614.78
2023-04-05T19:31:35.250Z,76620.84
2023-04-05T19:41:37.630Z,76626.94
2023-04-05T19:51:41.967Z,76618.81
2023-04-05T20:01:47.575Z,76612.75
2023-04-05T20:11:58.163Z,76622.88
2023-04-05T20:22:01.746Z,76630.97
2023-04-05T20:32:08.624Z,76620.84
2023-04-05T20:42:15.952Z,76616.81
2023-04-05T20:52:21.049Z,76552.03
2023-04-05T21:02:23.679Z,76576.31
2023-04-05T21:12:28.970Z,76600.59
2023-04-05T21:22:32.236Z,76584.41
2023-04-05T21:32:37.630Z,76566.19
2023-04-05T21:42:39.925Z,76570.25
2023-04-05T21:52:42.386Z,76564.19
2023-04-05T22:02:47.078Z,76564.19
2023-04-05T22:12:51.689Z,76554.06
2023-04-05T22:22:54.060Z,76560.13
2023-04-05T22:32:57.021Z,76570.25
2023-04-05T22:42:59.279Z,76572.28
2023-04-05T22:53:03.739Z,76576.31
2023-04-05T23:03:07.494Z,76588.47
2023-04-05T23:13:12.432Z,76584.41
2023-04-05T23:23:16.990Z,76584.41
2023-04-05T23:33:22.355Z,76576.31
2023-04-05T23:43:27.807Z,76576.31
2023-04-05T23:53:33.108Z,76576.31
